Penn Run, Pennsylvania
Current Conditions -  °F | °C
As of 11:15 AM on Wednesday 28 Jan 2015 (Local Time) from KIDI Reporting Station
Broken Clouds Broken Clouds  
Wind Chill:   Ceiling: 1300
Heat Index: 14°   Visibility: 9mi
Dew Point:   Wind: 8mph
Humidity: 79%   Direction: 270°W
Pressure: 30.34"   Gusts: NA
Location:  40.62°N, 79.01°W
Report Text: KIDI 281615Z AUTO 27007KT 9SM FEW003 SCT008 BKN013 M10/M13 A3034 RMK A01
Loading
Personal Weather Stations






























Interactive Weather Map New forecast layout! Learn more

10-Day Weather Forecast

Advertisements
Track Severe Weather on mobile